Seeley, CA

9:22 PM PDT on July 23, 2016 (GMT -0700)
El Centro Naval Air Facility | | Change Station

Elev -43 ft 32.83 °N, 115.66 °W | Updated 26 minutes ago

Scattered Clouds
Scattered Clouds
96 °F
Feels Like 99 °F
N
14
Wind Variable Wind from SE

Today
High -- | Low -- °F
--% Chance of Precip.
Yesterday
High -- | Low -- °F
Precip. -- in
Pressure 29.71 in
Visibility 10.0 miles
Clouds Scattered Clouds 3700 ft
Heat Index 99 °F
Dew Point 66 °F
Humidity 37%
Rainfall 0.00 in
Snow Depth Not available.
5:50 AM 7:47 PM
Waning Gibbous, 80% visible
METAR KNJK 240356Z AUTO 14012KT 10SM SCT037 36/19 A2967 RMK AO2 SLP061 T03560189 $
Pressure 29.71 in
Visibility 10.0 miles
Clouds Scattered Clouds 3700 ft
Heat Index 99 °F
Dew Point 66 °F
Humidity 37%
Rainfall 0.00 in
Snow Depth Not available.
5:50 AM 7:47 PM
Waning Gibbous, 80% visible
METAR KNJK 240356Z AUTO 14012KT 10SM SCT037 36/19 A2967 RMK AO2 SLP061 T03560189 $

10-Day Weather Forecast

Almanac

Astronomy

Jul. 23, 2016 Rise Set
Actual Time
Civil Twilight
Nautical Twilight
Astronomical Twilight
Moon
Length of Visible Light
Length of Day
Tomorrow will be .
, % of the Moon is Illuminated

Today's Extremes

State Highs State Lows

Community

WunderPhotos

Upload Photos

1,927,027 photos uploaded!

WunderBlog® & News

Nearby

Air Quality

  Air Quality AQ Index Pollutant
Not available.

Snow Depth

Station Depth Elevation

Earthquake Activity

City Distance Mag. Time & Date
Minimum magnitude displayed is 2.5.

Coastal Water Temperatures

Place Temperature

Stations

Nearby Weather Stations

Station Location Temp. Windchill Dew Point Humidity Wind Precip. Elev Updated Type
                   

Watches & Warnings

There are currently no watches in effect.